createdAt,value
2019-03-18T00:00:35.083Z,85.37
2019-03-18T00:03:05.404Z,85.78
2019-03-18T00:05:35.617Z,85.57
2019-03-18T00:08:08.561Z,85.76
2019-03-18T00:10:39.350Z,85.96
2019-03-18T00:13:09.977Z,86.26
2019-03-18T00:15:40.412Z,86.15
2019-03-18T00:18:10.530Z,85.93
2019-03-18T00:20:41.844Z,85.87
2019-03-18T00:23:12.158Z,85.76
2019-03-18T00:25:44.995Z,85.05
2019-03-18T00:28:15.417Z,85.38
2019-03-18T00:30:45.762Z,85.21
2019-03-18T00:33:19.221Z,85.30
2019-03-18T00:35:49.646Z,85.46
2019-03-18T00:38:19.867Z,85.60
2019-03-18T00:40:54.241Z,85.97
2019-03-18T00:43:26.994Z,86.32
2019-03-18T00:45:57.296Z,86.34
2019-03-18T00:48:27.623Z,87.03
2019-03-18T00:50:57.800Z,87.09
2019-03-18T00:53:28.039Z,87.29
2019-03-18T00:55:58.183Z,87.17
2019-03-18T00:58:28.318Z,86.83
2019-03-18T01:01:02.103Z,86.82
2019-03-18T01:03:32.543Z,86.78
2019-03-18T01:06:04.231Z,86.96
2019-03-18T01:08:34.276Z,87.07
2019-03-18T01:11:06.139Z,87.17
2019-03-18T01:13:40.984Z,87.25
2019-03-18T01:16:11.467Z,87.67
2019-03-18T01:18:41.667Z,87.83
2019-03-18T01:21:13.607Z,88.06
2019-03-18T01:23:43.922Z,88.44
2019-03-18T01:26:16.808Z,88.86
2019-03-18T01:28:46.347Z,88.74
2019-03-18T01:31:17.663Z,88.69
2019-03-18T01:33:47.787Z,88.77
2019-03-18T01:36:19.736Z,88.90
2019-03-18T01:38:52.786Z,88.96
2019-03-18T01:41:23.079Z,89.10
2019-03-18T01:43:55.849Z,89.05
2019-03-18T01:46:28.592Z,89.23
2019-03-18T01:48:58.794Z,89.36
2019-03-18T01:51:28.941Z,89.45
2019-03-18T01:54:03.960Z,89.17
2019-03-18T01:56:34.115Z,89.30
2019-03-18T01:59:06.996Z,89.25
2019-03-18T02:01:40.318Z,89.32
2019-03-18T02:04:12.085Z,89.55
2019-03-18T02:06:42.436Z,89.54
2019-03-18T02:09:12.825Z,89.87
2019-03-18T02:11:43.125Z,89.96
2019-03-18T02:14:13.255Z,90.18
2019-03-18T02:16:44.523Z,90.85
2019-03-18T02:19:14.833Z,91.14
2019-03-18T02:21:45.060Z,91.21
2019-03-18T02:24:16.253Z,91.09
2019-03-18T02:26:48.163Z,91.18
2019-03-18T02:29:18.350Z,90.87
2019-03-18T02:31:51.763Z,90.27
2019-03-18T02:34:22.993Z,89.89
2019-03-18T02:36:53.481Z,89.59
2019-03-18T02:39:23.808Z,89.58
2019-03-18T02:41:54.208Z,89.53
2019-03-18T02:44:24.423Z,89.17
2019-03-18T02:46:54.855Z,89.26
2019-03-18T02:49:25.031Z,89.40
2019-03-18T02:51:55.423Z,89.48
2019-03-18T02:54:26.029Z,90.35
2019-03-18T02:56:58.223Z,89.97
2019-03-18T02:59:30.108Z,89.71
2019-03-18T03:02:00.708Z,89.54
2019-03-18T03:04:33.883Z,89.57
2019-03-18T03:07:04.049Z,89.48
2019-03-18T03:09:34.171Z,89.67
2019-03-18T03:12:05.621Z,89.86
2019-03-18T03:14:37.416Z,90.03
2019-03-18T03:17:07.825Z,89.88
2019-03-18T03:19:38.901Z,89.69
2019-03-18T03:22:12.702Z,89.63
2019-03-18T03:24:48.174Z,89.67
2019-03-18T03:27:21.540Z,89.63
2019-03-18T03:29:54.502Z,89.60
2019-03-18T03:32:27.489Z,89.72
2019-03-18T03:34:57.625Z,89.84
2019-03-18T03:37:27.835Z,89.87
2019-03-18T03:39:58.072Z,89.92
2019-03-18T03:42:28.376Z,90.08
2019-03-18T03:44:58.783Z,90.15
2019-03-18T03:47:32.510Z,90.43
2019-03-18T03:50:02.972Z,90.43
2019-03-18T03:52:33.127Z,90.50
2019-03-18T03:55:03.320Z,90.58
2019-03-18T03:57:33.574Z,90.62
2019-03-18T04:00:05.185Z,90.58
2019-03-18T04:02:38.511Z,90.55
2019-03-18T04:05:09.020Z,90.42
2019-03-18T04:07:39.180Z,90.34
2019-03-18T04:10:09.934Z,90.40
2019-03-18T04:12:40.393Z,90.32
2019-03-18T04:15:10.517Z,90.19
2019-03-18T04:17:40.873Z,90.06
2019-03-18T04:20:11.226Z,90.12
2019-03-18T04:22:41.391Z,90.09
2019-03-18T04:25:11.952Z,89.90
2019-03-18T04:27:42.393Z,89.70
2019-03-18T04:30:12.942Z,89.63
2019-03-18T04:32:43.083Z,89.54
2019-03-18T04:35:13.256Z,89.42
2019-03-18T04:37:44.770Z,89.41
2019-03-18T04:40:15.389Z,89.39
2019-03-18T04:42:45.593Z,89.41
2019-03-18T04:45:15.843Z,89.39
2019-03-18T04:47:46.107Z,89.40
2019-03-18T04:50:19.028Z,89.75
2019-03-18T04:52:49.378Z,89.13
2019-03-18T04:55:19.626Z,88.02
2019-03-18T04:57:49.863Z,87.31
2019-03-18T05:00:20.068Z,87.25
2019-03-18T05:02:50.318Z,87.30
2019-03-18T05:05:23.300Z,87.51
2019-03-18T05:07:53.543Z,87.63
2019-03-18T05:10:23.954Z,87.71
2019-03-18T05:12:54.136Z,87.74
2019-03-18T05:15:24.277Z,87.74
2019-03-18T05:17:54.443Z,87.87
2019-03-18T05:20:24.636Z,88.69
2019-03-18T05:22:54.809Z,88.79
2019-03-18T05:25:25.650Z,89.63
2019-03-18T05:27:55.851Z,89.88
2019-03-18T05:30:26.060Z,89.84
2019-03-18T05:32:56.706Z,89.94
2019-03-18T05:35:26.831Z,90.32
2019-03-18T05:37:57.147Z,90.43
2019-03-18T05:40:27.414Z,90.83
2019-03-18T05:42:57.885Z,90.95
2019-03-18T05:45:29.477Z,91.92
2019-03-18T05:48:00.398Z,91.89
2019-03-18T05:50:30.549Z,91.75
2019-03-18T05:53:01.045Z,91.26
2019-03-18T05:55:31.179Z,90.80
2019-03-18T05:58:01.405Z,90.45
2019-03-18T06:00:33.272Z,90.14
2019-03-18T06:03:08.910Z,90.30
2019-03-18T06:05:39.495Z,90.03
2019-03-18T06:08:11.603Z,89.89
2019-03-18T06:10:42.156Z,90.12
2019-03-18T06:13:13.332Z,90.38
2019-03-18T06:15:43.617Z,90.24
2019-03-18T06:18:19.737Z,90.15
2019-03-18T06:20:49.869Z,90.04
2019-03-18T06:23:20.049Z,90.01
2019-03-18T06:25:50.264Z,89.71
2019-03-18T06:28:20.399Z,88.85
2019-03-18T06:30:50.915Z,88.46
2019-03-18T06:33:21.431Z,87.17
2019-03-18T06:35:53.665Z,85.81
2019-03-18T06:38:23.913Z,84.04
2019-03-18T06:40:54.507Z,83.07
2019-03-18T06:43:24.672Z,81.92
2019-03-18T06:45:54.791Z,81.25
2019-03-18T06:48:29.508Z,81.67
2019-03-18T06:50:59.824Z,80.68
2019-03-18T06:53:30.046Z,80.96
2019-03-18T06:56:00.406Z,80.42
2019-03-18T06:58:33.274Z,80.53
2019-03-18T07:01:04.900Z,79.94
2019-03-18T07:03:36.693Z,80.33
2019-03-18T07:06:06.917Z,79.97
2019-03-18T07:08:41.630Z,80.36
2019-03-18T07:11:12.061Z,80.69
2019-03-18T07:13:42.398Z,80.47
2019-03-18T07:16:12.801Z,80.79
2019-03-18T07:18:45.364Z,80.56
2019-03-18T07:21:17.779Z,80.35
2019-03-18T07:23:48.363Z,79.84
2019-03-18T07:26:18.828Z,79.50
2019-03-18T07:28:49.179Z,79.39
2019-03-18T07:31:19.755Z,79.08
2019-03-18T07:33:50.691Z,78.95
2019-03-18T07:36:21.160Z,78.69
2019-03-18T07:38:52.388Z,78.97
2019-03-18T07:41:22.758Z,78.67
2019-03-18T07:43:53.605Z,78.33
2019-03-18T07:46:23.822Z,79.01
2019-03-18T07:56:06.303Z,75.87
2019-03-18T07:58:36.895Z,74.46
2019-03-18T08:01:07.219Z,73.52
2019-03-18T08:03:37.718Z,71.84
2019-03-18T08:06:07.957Z,71.32
2019-03-18T08:08:38.212Z,71.90
2019-03-18T08:11:08.495Z,71.51
2019-03-18T08:13:39.121Z,70.83
2019-03-18T08:16:09.348Z,70.83
2019-03-18T08:18:43.546Z,70.55
2019-03-18T08:21:11.846Z,69.45
2019-03-18T08:23:42.110Z,67.27
2019-03-18T08:26:12.440Z,64.47
2019-03-18T08:28:42.729Z,62.60
2019-03-18T08:31:12.961Z,61.29
2019-03-18T08:33:46.456Z,61.66
2019-03-18T08:36:19.219Z,60.28
2019-03-18T08:38:49.474Z,61.61
2019-03-18T08:41:20.048Z,61.51
2019-03-18T08:43:50.353Z,62.16
2019-03-18T08:46:21.041Z,64.75
2019-03-18T08:48:55.970Z,66.84
2019-03-18T08:51:23.860Z,69.54
2019-03-18T08:53:54.227Z,72.35
2019-03-18T08:56:24.654Z,72.47
2019-03-18T08:58:54.911Z,74.28
2019-03-18T09:01:25.083Z,75.02
2019-03-18T09:03:55.673Z,76.72
2019-03-18T09:06:26.160Z,77.50
2019-03-18T09:08:56.538Z,79.73
2019-03-18T09:11:26.657Z,78.29
2019-03-18T09:13:56.829Z,78.39
2019-03-18T09:16:28.687Z,77.99
2019-03-18T09:19:07.953Z,77.54
2019-03-18T09:21:33.802Z,75.41
2019-03-18T09:26:38.270Z,66.60
2019-03-18T09:29:08.662Z,66.00
2019-03-18T09:31:38.835Z,62.01
2019-03-18T09:34:09.260Z,54.82
2019-03-18T09:36:41.260Z,46.19
2019-03-18T09:39:11.564Z,41.35
2019-03-18T09:41:41.757Z,37.07
2019-03-18T09:44:12.075Z,39.58
2019-03-18T09:46:42.652Z,38.51
2019-03-18T09:49:21.450Z,35.92
2019-03-18T09:51:46.500Z,33.39
2019-03-18T09:54:16.826Z,36.87
2019-03-18T09:56:47.083Z,38.16
2019-03-18T09:59:17.741Z,36.76
2019-03-18T10:01:50.865Z,38.57
2019-03-18T10:04:22.427Z,40.16
2019-03-18T10:06:52.645Z,42.46
2019-03-18T10:09:25.290Z,45.94
2019-03-18T10:11:55.603Z,48.66
2019-03-18T10:14:25.969Z,46.55
2019-03-18T10:17:08.909Z,47.62
2019-03-18T10:19:33.781Z,45.09
2019-03-18T10:22:01.420Z,48.72
2019-03-18T10:24:31.663Z,48.25
2019-03-18T10:27:01.782Z,47.05
2019-03-18T10:29:31.996Z,48.39
2019-03-18T10:32:02.244Z,50.00
2019-03-18T10:34:32.426Z,48.81
2019-03-18T10:37:02.804Z,50.51
2019-03-18T10:39:33.372Z,51.63
2019-03-18T10:42:03.877Z,54.55
2019-03-18T10:44:34.387Z,57.94
2019-03-18T10:47:07.443Z,61.78
2019-03-18T10:49:45.957Z,63.52
2019-03-18T10:52:10.892Z,63.34
2019-03-18T10:54:41.925Z,63.96
2019-03-18T10:57:13.959Z,63.44
2019-03-18T10:59:44.682Z,56.58
2019-03-18T11:02:15.271Z,46.69
2019-03-18T11:04:45.631Z,40.04
2019-03-18T11:07:15.988Z,38.84
2019-03-18T11:09:49.129Z,40.25
2019-03-18T11:12:18.999Z,41.71
2019-03-18T11:14:52.214Z,45.69
2019-03-18T11:17:22.914Z,50.09
2019-03-18T11:19:58.233Z,50.36
2019-03-18T11:22:27.765Z,52.15
2019-03-18T11:25:01.413Z,51.50
2019-03-18T11:27:31.744Z,49.61
2019-03-18T11:30:02.730Z,43.06
2019-03-18T11:32:34.389Z,39.78
2019-03-18T11:35:05.431Z,38.44
2019-03-18T11:37:37.385Z,34.41
2019-03-18T11:40:09.179Z,31.97
2019-03-18T11:42:40.018Z,32.40
2019-03-18T11:45:12.629Z,33.79
2019-03-18T11:47:43.436Z,35.02
2019-03-18T11:50:16.726Z,34.79
2019-03-18T11:52:48.749Z,37.18
2019-03-18T11:55:19.656Z,38.89
2019-03-18T11:57:50.544Z,45.63
2019-03-18T12:00:20.952Z,44.68
2019-03-18T12:02:59.973Z,45.51
2019-03-18T12:05:30.792Z,41.30
2019-03-18T12:08:01.201Z,36.68
2019-03-18T12:10:31.575Z,36.60
2019-03-18T12:13:01.921Z,38.77
2019-03-18T12:15:32.589Z,40.09
2019-03-18T12:18:03.070Z,37.61
2019-03-18T12:20:33.371Z,36.33
2019-03-18T12:23:03.623Z,34.93
2019-03-18T12:25:34.230Z,31.78
2019-03-18T12:28:05.328Z,31.99
2019-03-18T12:30:36.207Z,33.76
2019-03-18T12:33:06.464Z,29.07
2019-03-18T12:35:36.648Z,28.34
2019-03-18T12:38:07.325Z,25.53
2019-03-18T12:40:37.844Z,26.72
2019-03-18T12:43:08.095Z,28.48
2019-03-18T12:45:38.345Z,25.39
2019-03-18T12:48:08.704Z,22.64
2019-03-18T12:50:55.741Z,25.37
2019-03-18T12:53:17.715Z,23.28
2019-03-18T12:55:47.983Z,24.01
2019-03-18T12:58:18.186Z,24.04
2019-03-18T13:00:50.843Z,23.52
2019-03-18T13:03:21.326Z,24.98
2019-03-18T13:05:53.751Z,28.82
2019-03-18T13:08:23.992Z,29.81
2019-03-18T13:10:54.697Z,29.61
2019-03-18T13:13:25.165Z,27.61
2019-03-18T13:15:55.611Z,28.11
2019-03-18T13:18:26.202Z,32.30
2019-03-18T13:21:07.245Z,35.50
2019-03-18T13:23:29.796Z,36.20
2019-03-18T13:25:59.912Z,36.78
2019-03-18T13:28:30.456Z,38.05
2019-03-18T13:31:01.127Z,40.25
2019-03-18T13:33:34.386Z,41.21
2019-03-18T13:36:05.346Z,43.27
2019-03-18T13:38:35.648Z,42.11
2019-03-18T13:41:05.995Z,41.26
2019-03-18T13:43:38.013Z,39.85
2019-03-18T13:46:09.357Z,40.18
2019-03-18T13:48:39.635Z,39.44
2019-03-18T13:51:20.370Z,35.68
2019-03-18T13:53:43.027Z,35.84
2019-03-18T13:56:13.401Z,38.52
2019-03-18T13:58:44.902Z,37.73
2019-03-18T14:01:18.194Z,41.23
2019-03-18T14:03:48.799Z,41.00
2019-03-18T14:06:22.466Z,41.34
2019-03-18T14:08:55.367Z,42.34
2019-03-18T14:11:24.946Z,43.52
2019-03-18T14:13:55.474Z,44.87
2019-03-18T14:16:25.955Z,44.47
2019-03-18T14:18:56.323Z,43.65
2019-03-18T14:21:33.158Z,44.72
2019-03-18T14:24:01.713Z,43.48
2019-03-18T14:26:30.789Z,44.58
2019-03-18T14:29:01.114Z,46.31
2019-03-18T14:31:31.528Z,45.44
2019-03-18T14:34:01.763Z,46.62
2019-03-18T14:36:31.910Z,46.06
2019-03-18T14:39:02.276Z,46.99
2019-03-18T14:41:33.979Z,45.39
2019-03-18T14:44:05.439Z,45.28
2019-03-18T14:46:42.709Z,47.47
2019-03-18T14:49:13.286Z,47.38
2019-03-18T14:51:46.280Z,48.28
2019-03-18T14:54:19.471Z,48.94
2019-03-18T14:56:53.176Z,49.15
2019-03-18T14:59:23.682Z,50.83
2019-03-18T15:01:54.226Z,49.94
2019-03-18T15:04:24.405Z,59.18
2019-03-18T15:06:54.725Z,65.93
2019-03-18T15:09:25.031Z,68.71
2019-03-18T15:11:56.058Z,70.37
2019-03-18T15:14:26.442Z,70.56
2019-03-18T15:17:00.037Z,71.74
2019-03-18T15:19:30.514Z,72.15
2019-03-18T15:22:00.808Z,71.36
2019-03-18T15:24:32.197Z,71.18
2019-03-18T15:27:02.924Z,72.96
2019-03-18T15:29:34.154Z,72.01
2019-03-18T15:32:05.484Z,70.78
2019-03-18T15:34:35.836Z,74.16
2019-03-18T15:37:06.771Z,70.40
2019-03-18T15:39:37.011Z,70.93
2019-03-18T15:42:10.121Z,71.23
2019-03-18T15:44:40.799Z,70.79
2019-03-18T15:47:11.316Z,71.12
2019-03-18T15:49:41.654Z,71.01
2019-03-18T15:52:11.879Z,68.12
2019-03-18T15:54:53.284Z,69.56
2019-03-18T15:57:14.147Z,70.96
2019-03-18T15:59:44.566Z,70.02
2019-03-18T16:02:15.444Z,71.08
2019-03-18T16:04:45.932Z,71.28
2019-03-18T16:07:16.268Z,71.94
2019-03-18T16:09:47.267Z,74.17
2019-03-18T16:12:18.016Z,74.48
2019-03-18T16:14:48.523Z,74.06
2019-03-18T16:17:18.841Z,74.05
2019-03-18T16:19:49.330Z,75.00
2019-03-18T16:22:23.799Z,76.29
2019-03-18T16:24:54.295Z,76.93
2019-03-18T16:27:27.612Z,77.27
2019-03-18T16:29:58.146Z,76.63
2019-03-18T16:32:28.546Z,77.36
2019-03-18T16:34:58.821Z,81.22
2019-03-18T16:37:29.188Z,82.00
2019-03-18T16:39:59.683Z,80.65
2019-03-18T16:42:30.310Z,76.75
2019-03-18T16:45:03.712Z,76.72
2019-03-18T16:47:35.227Z,77.04
2019-03-18T16:50:09.547Z,78.30
2019-03-18T16:52:42.801Z,78.55
2019-03-18T16:55:16.211Z,78.97
2019-03-18T16:57:46.371Z,80.26
2019-03-18T17:00:17.876Z,80.58
2019-03-18T17:02:48.298Z,81.12
2019-03-18T17:05:20.442Z,80.60
2019-03-18T17:07:53.946Z,80.76
2019-03-18T17:10:23.230Z,80.72
2019-03-18T17:12:53.412Z,81.32
2019-03-18T17:15:24.357Z,81.79
2019-03-18T17:17:54.609Z,82.58
2019-03-18T17:20:27.382Z,82.75
2019-03-18T17:22:57.738Z,83.54
2019-03-18T17:25:29.882Z,83.25
2019-03-18T17:28:00.152Z,84.19
2019-03-18T17:30:36.547Z,83.75
2019-03-18T17:33:06.732Z,84.45
2019-03-18T17:35:37.130Z,85.03
2019-03-18T17:38:07.785Z,85.78
2019-03-18T17:40:38.151Z,85.21
2019-03-18T17:43:10.942Z,85.77
2019-03-18T17:45:41.392Z,86.70
2019-03-18T17:48:11.702Z,86.57
2019-03-18T17:50:42.016Z,86.64
2019-03-18T17:53:12.325Z,87.19
2019-03-18T17:55:45.393Z,87.69
2019-03-18T17:58:16.060Z,88.13
2019-03-18T18:00:48.802Z,88.41
2019-03-18T18:03:21.843Z,88.70
2019-03-18T18:05:52.397Z,89.00
2019-03-18T18:08:23.269Z,89.20
2019-03-18T18:10:54.772Z,89.48
2019-03-18T18:13:25.301Z,89.26
2019-03-18T18:15:55.598Z,85.89
2019-03-18T18:18:25.749Z,84.03
2019-03-18T18:20:59.604Z,82.11
2019-03-18T18:23:30.017Z,81.14
2019-03-18T18:26:02.005Z,80.35
2019-03-18T18:28:35.129Z,80.48
2019-03-18T18:31:05.347Z,81.51
2019-03-18T18:33:35.742Z,80.66
2019-03-18T18:36:05.956Z,81.32
2019-03-18T18:38:39.297Z,82.16
2019-03-18T18:41:10.070Z,82.06
2019-03-18T18:43:44.402Z,81.69
2019-03-18T18:46:18.060Z,82.20
2019-03-18T18:48:48.436Z,82.14
2019-03-18T18:51:21.327Z,82.45
2019-03-18T18:53:51.834Z,83.03
2019-03-18T18:56:22.107Z,83.17
2019-03-18T18:58:52.593Z,85.26
2019-03-18T19:01:22.835Z,85.31
2019-03-18T19:03:53.146Z,85.69
2019-03-18T19:06:24.071Z,85.59
2019-03-18T19:08:54.364Z,85.46
2019-03-18T19:11:24.608Z,85.77
2019-03-18T19:13:55.138Z,86.37
2019-03-18T19:16:25.528Z,85.97
2019-03-18T19:18:56.009Z,85.72
2019-03-18T19:21:26.464Z,85.81
2019-03-18T19:23:56.835Z,85.65
2019-03-18T19:26:28.672Z,85.47
2019-03-18T19:29:00.620Z,86.35
2019-03-18T19:31:31.074Z,86.01
2019-03-18T19:34:01.667Z,86.85
2019-03-18T19:36:32.114Z,87.09
2019-03-18T19:39:02.541Z,86.90
2019-03-18T19:41:33.355Z,86.79
2019-03-18T19:44:03.681Z,87.41
2019-03-18T19:46:34.315Z,87.99
2019-03-18T19:49:04.973Z,87.76
2019-03-18T19:51:35.294Z,87.70
2019-03-18T19:54:05.751Z,87.68
2019-03-18T19:56:38.726Z,87.88
2019-03-18T19:59:09.084Z,89.07
2019-03-18T20:01:39.627Z,88.97
2019-03-18T20:04:10.185Z,88.69
2019-03-18T20:06:40.461Z,89.00
2019-03-18T20:09:13.729Z,89.18
2019-03-18T20:11:43.996Z,89.40
2019-03-18T20:14:14.795Z,89.64
2019-03-18T20:16:45.086Z,90.41
2019-03-18T20:19:15.424Z,90.40
2019-03-18T20:21:48.012Z,90.35
2019-03-18T20:24:18.874Z,90.14
2019-03-18T20:26:56.408Z,90.11
2019-03-18T20:29:26.831Z,90.31
2019-03-18T20:31:57.267Z,90.51
2019-03-18T20:34:27.479Z,90.94
2019-03-18T20:36:58.282Z,90.95
2019-03-18T20:39:28.822Z,90.95
2019-03-18T20:41:59.387Z,90.61
2019-03-18T20:44:29.779Z,90.48
2019-03-18T20:47:04.320Z,90.33
2019-03-18T20:49:36.138Z,90.18
2019-03-18T20:52:16.322Z,90.22
2019-03-18T20:54:38.586Z,90.25
2019-03-18T20:57:09.509Z,90.28
2019-03-18T20:59:40.163Z,90.27
2019-03-18T21:02:10.858Z,90.31
2019-03-18T21:04:44.262Z,90.11
2019-03-18T21:07:16.958Z,90.05
2019-03-18T21:09:49.362Z,90.19
2019-03-18T21:12:21.229Z,90.72
2019-03-18T21:14:51.790Z,90.45
2019-03-18T21:17:24.184Z,90.71
2019-03-18T21:19:57.723Z,92.47
2019-03-18T21:22:28.732Z,91.84
2019-03-18T21:24:59.242Z,91.10
2019-03-18T21:27:29.768Z,90.76
2019-03-18T21:30:00.378Z,90.89
2019-03-18T21:32:31.108Z,91.03
2019-03-18T21:35:01.267Z,91.27
2019-03-18T21:37:32.047Z,91.53
2019-03-18T21:40:02.696Z,91.62
2019-03-18T21:42:33.177Z,91.23
2019-03-18T21:45:05.027Z,91.08
2019-03-18T21:47:35.721Z,91.23
2019-03-18T21:50:09.126Z,91.50
2019-03-18T21:52:39.657Z,91.59
2019-03-18T21:55:11.381Z,91.56
2019-03-18T21:57:42.042Z,91.48
2019-03-18T22:00:14.587Z,91.82
2019-03-18T22:02:44.946Z,91.88
2019-03-18T22:05:16.021Z,91.77
2019-03-18T22:07:46.647Z,91.64
2019-03-18T22:10:17.158Z,91.49
2019-03-18T22:12:49.044Z,91.61
2019-03-18T22:15:19.746Z,91.84
2019-03-18T22:17:50.077Z,92.21
2019-03-18T22:20:23.155Z,92.41
2019-03-18T22:22:55.286Z,92.29
2019-03-18T22:25:28.425Z,92.13
2019-03-18T22:27:58.588Z,92.14
2019-03-18T22:30:28.919Z,92.20
2019-03-18T22:32:59.298Z,92.41
2019-03-18T22:35:30.987Z,92.59
2019-03-18T22:38:01.387Z,92.85
2019-03-18T22:40:31.908Z,93.14
2019-03-18T22:43:02.462Z,93.03
2019-03-18T22:45:32.972Z,92.77
2019-03-18T22:48:05.953Z,92.62
2019-03-18T22:50:36.184Z,92.61
2019-03-18T22:53:06.387Z,92.61
2019-03-18T22:55:36.531Z,92.72
2019-03-18T22:58:07.985Z,92.94
2019-03-18T23:00:44.534Z,93.07
2019-03-18T23:03:15.322Z,93.08
2019-03-18T23:05:48.415Z,93.15
2019-03-18T23:08:18.569Z,93.75
2019-03-18T23:10:48.961Z,93.80
2019-03-18T23:13:19.177Z,93.94
2019-03-18T23:15:49.892Z,93.61
2019-03-18T23:18:20.497Z,93.22
2019-03-18T23:27:01.312Z,93.01
2019-03-18T23:29:32.341Z,93.15
2019-03-18T23:32:03.068Z,93.23
2019-03-18T23:34:33.469Z,93.50
2019-03-18T23:37:03.912Z,93.50
2019-03-18T23:39:34.103Z,93.55
2019-03-18T23:42:04.376Z,93.60
2019-03-18T23:44:34.560Z,93.57
2019-03-18T23:47:04.755Z,93.69
2019-03-18T23:49:34.935Z,93.96
2019-03-18T23:52:05.521Z,95.85
2019-03-18T23:54:37.261Z,96.23
2019-03-18T23:57:07.970Z,95.53
2019-03-18T23:59:42.071Z,95.03
